createdAt,value
2023-06-12T06:00:06.036Z,100559.91
2023-06-12T06:01:13.905Z,100555.52
2023-06-12T06:02:23.304Z,100557.28
2023-06-12T06:03:26.258Z,100548.33
2023-06-12T06:04:30.052Z,100550.29
2023-06-12T06:05:35.399Z,100559.56
2023-06-12T06:06:42.276Z,100555.78
2023-06-12T06:07:49.110Z,100564.75
2023-06-12T06:08:51.781Z,100549.83
2023-06-12T06:09:54.235Z,100556.19
2023-06-12T06:10:57.765Z,100551.38
2023-06-12T06:12:06.995Z,100558.69
2023-06-12T06:13:11.864Z,100557.92
2023-06-12T06:14:16.604Z,100551.73
2023-06-12T06:15:22.369Z,100552.98
2023-06-12T06:16:40.036Z,100555.22
2023-06-12T06:17:34.039Z,100558.79
2023-06-12T06:18:38.920Z,100556.47
2023-06-12T06:19:44.100Z,100558.48
2023-06-12T06:20:50.596Z,100556.95
2023-06-12T06:21:55.858Z,100564.85
2023-06-12T06:23:03.668Z,100555.78
2023-06-12T06:24:08.967Z,100549.72
2023-06-12T06:25:14.068Z,100556.38
2023-06-12T06:26:17.068Z,100557.14
2023-06-12T06:27:22.299Z,100553.58
2023-06-12T06:28:27.133Z,100557.06
2023-06-12T06:29:32.396Z,100550.19
2023-06-12T06:30:37.622Z,100559.08
2023-06-12T06:31:42.622Z,100562.35
2023-06-12T06:32:47.799Z,100556.17
2023-06-12T06:33:50.925Z,100553.86
2023-06-12T06:34:53.520Z,100558.20
2023-06-12T06:35:58.560Z,100554.63
2023-06-12T06:37:04.335Z,100552.31
2023-06-12T06:38:06.912Z,100559.14
2023-06-12T06:39:09.577Z,100557.78
2023-06-12T06:40:15.229Z,100555.28
2023-06-12T06:41:17.769Z,100556.83
2023-06-12T06:42:23.376Z,100558.67
2023-06-12T06:43:31.039Z,100562.53
2023-06-12T06:44:36.794Z,100563.89
2023-06-12T06:45:39.313Z,100568.50
2023-06-12T06:46:44.442Z,100566.00
2023-06-12T06:47:49.728Z,100564.28
2023-06-12T06:48:55.182Z,100571.41
2023-06-12T06:50:03.213Z,100564.28
2023-06-12T06:51:08.280Z,100557.44
2023-06-12T06:52:12.949Z,100553.88
2023-06-12T06:53:15.836Z,100559.17
2023-06-12T06:54:21.788Z,100563.80
2023-06-12T06:55:26.584Z,100561.66
2023-06-12T06:56:33.299Z,100563.69
2023-06-12T06:57:37.998Z,100562.91
2023-06-12T06:58:43.349Z,100559.34
2023-06-12T06:59:48.175Z,100557.33
2023-06-12T07:00:53.126Z,100562.44
2023-06-12T07:01:55.937Z,100554.53
2023-06-12T07:03:00.004Z,100559.86
2023-06-12T07:04:02.958Z,100556.77
2023-06-12T07:05:06.578Z,100559.08
2023-06-12T07:06:11.580Z,100557.72
2023-06-12T07:07:16.209Z,100561.28
2023-06-12T07:08:20.899Z,100559.86
2023-06-12T07:09:23.421Z,100553.49
2023-06-12T07:10:28.310Z,100558.39
2023-06-12T07:11:33.998Z,100561.89
2023-06-12T07:12:36.610Z,100551.22
2023-06-12T07:13:42.003Z,100560.09
2023-06-12T07:14:44.682Z,100557.79
2023-06-12T07:15:49.630Z,100558.25
2023-06-12T07:16:54.907Z,100555.36
2023-06-12T07:18:00.083Z,100557.55
2023-06-12T07:19:05.280Z,100566.32
2023-06-12T07:21:21.695Z,100558.23
2023-06-12T07:22:27.256Z,100565.66
2023-06-12T07:23:31.931Z,100558.63
2023-06-12T07:24:36.458Z,100558.03
2023-06-12T07:25:41.577Z,100566.48
2023-06-12T07:26:47.357Z,100568.39
2023-06-12T07:27:52.033Z,100568.95
2023-06-12T07:29:00.221Z,100558.30
2023-06-12T07:30:04.115Z,100562.72
2023-06-12T07:31:09.776Z,100561.04
2023-06-12T07:32:14.944Z,100557.95
2023-06-12T07:33:20.589Z,100558.73
2023-06-12T07:34:25.980Z,100555.92
2023-06-12T07:35:31.236Z,100556.46
2023-06-12T07:36:36.015Z,100572.09
2023-06-12T07:37:42.166Z,100556.33
2023-06-12T07:38:45.363Z,100559.41
2023-06-12T07:39:50.383Z,100565.09
2023-06-12T07:40:53.118Z,100559.80
2023-06-12T07:41:55.967Z,100552.23
2023-06-12T07:42:58.546Z,100554.05
2023-06-12T07:44:01.617Z,100549.22
2023-06-12T07:45:04.519Z,100562.73
2023-06-12T07:46:09.679Z,100551.53
2023-06-12T07:47:14.708Z,100554.61
2023-06-12T07:48:19.515Z,100553.31
2023-06-12T07:49:24.528Z,100546.73
2023-06-12T07:50:29.800Z,100551.25
2023-06-12T07:51:35.113Z,100549.70
2023-06-12T07:52:40.707Z,100556.58
2023-06-12T07:53:43.276Z,100560.85
2023-06-12T07:54:49.186Z,100556.50
2023-06-12T07:55:56.390Z,100551.67
2023-06-12T07:56:56.467Z,100548.87
2023-06-12T07:57:58.846Z,100553.70
2023-06-12T07:59:11.379Z,100552.94
2023-06-12T08:00:17.614Z,100539.97
2023-06-12T08:01:22.644Z,100549.70
2023-06-12T08:02:28.057Z,100553.77
2023-06-12T08:03:31.805Z,100551.46
2023-06-12T08:04:36.019Z,100540.73
2023-06-12T08:05:38.664Z,100548.72
2023-06-12T08:06:43.216Z,100549.98
2023-06-12T08:07:45.658Z,100554.92
2023-06-12T08:08:48.240Z,100560.90
2023-06-12T08:09:53.288Z,100559.17
2023-06-12T08:10:57.634Z,100552.86
2023-06-12T08:12:01.540Z,100543.17
2023-06-12T08:13:04.942Z,100547.30
2023-06-12T08:14:08.716Z,100559.30
2023-06-12T08:15:12.910Z,100548.63
2023-06-12T08:16:16.093Z,100552.45
2023-06-12T08:17:20.813Z,100541.28
2023-06-12T08:18:23.641Z,100542.60
2023-06-12T08:19:26.447Z,100546.95
2023-06-12T08:20:30.667Z,100542.66
2023-06-12T08:21:36.886Z,100547.52
2023-06-12T08:22:39.413Z,100547.02
2023-06-12T08:23:41.910Z,100543.22
2023-06-12T08:24:44.448Z,100550.64
2023-06-12T08:25:48.355Z,100547.06
2023-06-12T08:26:51.163Z,100548.06
2023-06-12T08:27:53.679Z,100550.32
2023-06-12T08:28:58.548Z,100553.11
2023-06-12T08:30:07.598Z,100547.99
2023-06-12T08:31:13.807Z,100557.17
2023-06-12T08:32:18.718Z,100555.14
2023-06-12T08:33:24.324Z,100551.07
2023-06-12T08:34:29.417Z,100549.26
2023-06-12T08:35:35.052Z,100544.64
2023-06-12T08:36:40.399Z,100543.38
2023-06-12T08:37:42.964Z,100544.36
2023-06-12T08:38:48.189Z,100536.11
2023-06-12T08:39:54.752Z,100537.66
2023-06-12T08:41:01.020Z,100542.49
2023-06-12T08:42:06.004Z,100531.80
2023-06-12T08:43:10.995Z,100539.69
2023-06-12T08:44:14.013Z,100544.86
2023-06-12T08:45:22.425Z,100542.11
2023-06-12T08:46:27.887Z,100548.27
2023-06-12T08:47:33.624Z,100541.88
2023-06-12T08:48:36.221Z,100543.66
2023-06-12T08:49:38.686Z,100541.39
2023-06-12T08:50:43.130Z,100545.48
2023-06-12T08:51:47.906Z,100546.25
2023-06-12T08:52:55.714Z,100547.52
2023-06-12T08:54:00.808Z,100540.36
2023-06-12T08:55:06.705Z,100544.98
2023-06-12T08:56:14.284Z,100550.32
2023-06-12T08:57:19.128Z,100547.30
2023-06-12T09:02:22.111Z,100541.13
2023-06-12T09:03:24.842Z,100538.58
2023-06-12T09:06:02.740Z,100535.57
2023-06-12T09:07:05.365Z,100534.45
2023-06-12T09:08:07.901Z,100545.41
2023-06-12T09:09:10.356Z,100544.86
2023-06-12T09:10:16.339Z,100541.50
2023-06-12T09:11:21.441Z,100543.02
2023-06-12T09:12:26.259Z,100534.82
2023-06-12T09:13:32.948Z,100544.44
2023-06-12T09:14:35.625Z,100549.28
2023-06-12T09:15:41.444Z,100542.13
2023-06-12T09:16:46.164Z,100548.23
2023-06-12T09:17:55.364Z,100537.52
2023-06-12T09:18:58.053Z,100541.30
2023-06-12T09:20:01.074Z,100548.42
2023-06-12T09:21:04.676Z,100541.95
2023-06-12T09:22:07.188Z,100542.16
2023-06-12T09:23:11.998Z,100548.76
2023-06-12T09:24:16.392Z,100551.03
2023-06-12T09:25:21.939Z,100543.89
2023-06-12T09:26:24.694Z,100545.42
2023-06-12T09:27:27.361Z,100545.19
2023-06-12T09:28:29.870Z,100552.83
2023-06-12T09:29:37.214Z,100546.94
2023-06-12T09:30:40.955Z,100548.48
2023-06-12T09:31:43.678Z,100554.61
2023-06-12T09:32:46.180Z,100541.30
2023-06-12T09:33:54.124Z,100542.28
2023-06-12T09:34:59.491Z,100549.64
2023-06-12T09:36:04.427Z,100544.52
2023-06-12T09:37:08.213Z,100550.62
2023-06-12T09:38:13.599Z,100551.84
2023-06-12T09:39:18.417Z,100544.63
2023-06-12T09:40:23.220Z,100547.15
2023-06-12T09:41:28.049Z,100552.96
2023-06-12T09:42:35.719Z,100562.34
2023-06-12T09:43:40.778Z,100553.94
2023-06-12T09:44:43.827Z,100552.40
2023-06-12T09:47:10.002Z,100560.67
2023-06-12T09:48:11.918Z,100560.03
2023-06-12T09:49:14.478Z,100556.98
2023-06-12T09:50:21.196Z,100568.67
2023-06-12T09:51:26.433Z,100550.53
2023-06-12T09:52:28.980Z,100561.73
2023-06-12T09:53:31.496Z,100564.46
2023-06-12T09:54:36.366Z,100566.69
2023-06-12T09:55:40.087Z,100562.35
2023-06-12T09:57:57.658Z,100566.85
2023-06-12T09:59:02.412Z,100567.27
2023-06-12T10:00:07.737Z,100564.95
2023-06-12T10:01:12.257Z,100568.23
2023-06-12T10:02:16.274Z,100572.58
2023-06-12T10:03:21.537Z,100571.52
2023-06-12T10:04:50.001Z,100576.10
2023-06-12T10:05:56.982Z,100567.70
2023-06-12T10:07:17.117Z,100575.81
2023-06-12T10:08:19.744Z,100576.99
2023-06-12T10:09:27.327Z,100580.00
2023-06-12T10:10:32.564Z,100569.97
2023-06-12T10:11:37.891Z,100581.94
2023-06-12T10:13:53.447Z,100580.97
2023-06-12T10:14:57.659Z,100581.59
2023-06-12T10:16:02.707Z,100579.00
2023-06-12T10:17:05.510Z,100577.14
2023-06-12T10:18:08.114Z,100577.14
2023-06-12T10:19:10.708Z,100581.20
2023-06-12T10:20:13.468Z,100586.79
2023-06-12T10:21:16.780Z,100581.68
2023-06-12T10:22:19.449Z,100581.39
2023-06-12T10:28:26.761Z,100580.13
2023-06-12T10:29:33.606Z,100582.16
2023-06-12T10:30:38.068Z,100579.11
2023-06-12T10:31:40.660Z,100588.53
2023-06-12T10:32:48.576Z,100579.66
2023-06-12T10:34:02.672Z,100579.94
2023-06-12T10:35:08.526Z,100585.53
2023-06-12T10:36:14.184Z,100584.77
2023-06-12T10:38:35.376Z,100583.91
2023-06-12T10:39:40.115Z,100584.96
2023-06-12T10:40:49.354Z,100589.02
2023-06-12T10:41:59.401Z,100590.56
2023-06-12T10:43:07.288Z,100587.77
2023-06-12T10:44:44.122Z,100584.61
2023-06-12T10:46:00.611Z,100586.64
2023-06-12T10:47:07.459Z,100584.33
2023-06-12T10:48:15.648Z,100586.84
2023-06-12T10:49:19.529Z,100588.38
2023-06-12T10:50:25.214Z,100589.44
2023-06-12T10:51:36.075Z,100584.81
2023-06-12T10:52:42.213Z,100582.49
2023-06-12T10:53:47.566Z,100580.66
2023-06-12T10:55:12.984Z,100579.12
2023-06-12T10:56:18.231Z,100583.95
2023-06-12T10:57:25.669Z,100575.55
2023-06-12T10:58:30.266Z,100577.09
2023-06-12T10:59:38.584Z,100583.75
2023-06-12T11:00:49.459Z,100580.47
2023-06-12T11:01:57.442Z,100576.41
2023-06-12T11:04:13.548Z,100579.50
2023-06-12T11:05:21.376Z,100575.06
2023-06-12T11:06:27.944Z,100579.41
2023-06-12T11:07:32.025Z,100580.66
2023-06-12T11:08:37.332Z,100574.30
2023-06-12T11:09:42.563Z,100577.38
2023-06-12T11:10:48.844Z,100571.78
2023-06-12T11:11:53.965Z,100578.16
2023-06-12T11:12:56.699Z,100571.30
2023-06-12T11:14:01.356Z,100577.95
2023-06-12T11:15:10.466Z,100575.45
2023-06-12T11:16:16.959Z,100572.16
2023-06-12T11:17:21.765Z,100571.39
2023-06-12T11:18:31.702Z,100572.16
2023-06-12T11:19:36.444Z,100570.42
2023-06-12T11:20:41.231Z,100571.19
2023-06-12T11:21:46.004Z,100578.59
2023-06-12T11:22:51.381Z,100569.42
2023-06-12T11:23:56.282Z,100573.28
2023-06-12T11:25:08.376Z,100571.73
2023-06-12T11:26:13.708Z,100569.42
2023-06-12T11:27:16.224Z,100562.57
2023-06-12T11:28:18.831Z,100568.74
2023-06-12T11:29:21.435Z,100571.83
2023-06-12T11:30:32.907Z,100573.69
2023-06-12T11:31:32.798Z,100569.91
2023-06-12T11:32:35.395Z,100567.80
2023-06-12T11:33:38.183Z,100569.03
2023-06-12T11:34:41.768Z,100571.05
2023-06-12T11:40:33.982Z,100581.54
2023-06-12T11:41:39.905Z,100581.83
2023-06-12T11:42:45.900Z,100582.31
2023-06-12T11:43:48.431Z,100580.77
2023-06-12T11:44:51.808Z,100583.85
2023-06-12T11:45:56.549Z,100584.14
2023-06-12T11:49:16.605Z,100582.73
2023-06-12T11:50:21.879Z,100584.27
2023-06-12T11:51:26.653Z,100578.91
2023-06-12T11:52:29.372Z,100590.11
2023-06-12T11:53:35.619Z,100586.02
2023-06-12T11:57:18.782Z,100577.36
2023-06-12T11:58:23.785Z,100583.73
2023-06-12T11:59:30.008Z,100579.93
2023-06-12T12:00:38.049Z,100586.37
2023-06-12T12:01:42.406Z,100579.11
2023-06-12T12:02:54.805Z,100580.16
2023-06-12T12:04:01.969Z,100577.90
2023-06-12T12:06:17.696Z,100578.05
2023-06-12T12:07:24.553Z,100576.92
2023-06-12T12:08:29.324Z,100577.69
2023-06-12T12:09:34.090Z,100578.74
2023-06-12T12:10:40.673Z,100584.06
2023-06-12T12:11:43.316Z,100579.44
2023-06-12T12:12:53.347Z,100579.92
2023-06-12T12:14:03.227Z,100585.53
2023-06-12T12:15:07.186Z,100575.58
2023-06-12T12:16:14.362Z,100578.38
2023-06-12T12:17:19.505Z,100586.02
2023-06-12T12:18:24.183Z,100574.81
2023-06-12T12:19:29.186Z,100579.16
2023-06-12T12:20:34.078Z,100585.25
2023-06-12T12:21:39.011Z,100580.42
2023-06-12T12:22:43.715Z,100587.28
2023-06-12T12:23:49.140Z,100579.39
2023-06-12T12:24:57.158Z,100578.63
2023-06-12T12:26:01.993Z,100586.51
2023-06-12T12:27:05.880Z,100588.56
2023-06-12T12:28:10.526Z,100587.52
2023-06-12T12:29:15.477Z,100590.80
2023-06-12T12:31:31.377Z,100585.20
2023-06-12T12:32:38.306Z,100594.98
2023-06-12T12:33:42.973Z,100589.59
2023-06-12T12:34:48.243Z,100594.94
2023-06-12T12:35:53.138Z,100592.63
2023-06-12T12:36:57.975Z,100593.11
2023-06-12T12:38:03.196Z,100600.94
2023-06-12T12:39:08.103Z,100608.97
2023-06-12T12:40:12.743Z,100613.81
2023-06-12T12:41:15.637Z,100613.66
2023-06-12T12:42:20.809Z,100618.78
2023-06-12T12:43:26.045Z,100607.13
2023-06-12T12:44:31.240Z,100611.30
2023-06-12T12:45:36.478Z,100605.31
2023-06-12T12:46:41.869Z,100614.38
2023-06-12T12:47:47.116Z,100611.28
2023-06-12T12:48:50.231Z,100606.17
2023-06-12T12:50:03.567Z,100609.45
2023-06-12T12:51:10.037Z,100606.95
2023-06-12T12:52:12.893Z,100615.14
2023-06-12T12:53:14.874Z,100606.09
2023-06-12T12:54:17.560Z,100605.89
2023-06-12T12:55:20.179Z,100603.95
2023-06-12T12:56:23.513Z,100612.73
2023-06-12T12:57:27.874Z,100612.25
2023-06-12T12:58:32.277Z,100608.67
2023-06-12T12:59:36.905Z,100614.46
2023-06-12T13:00:39.741Z,100613.69
2023-06-12T13:01:42.360Z,100612.73
2023-06-12T13:02:45.078Z,100616.59
2023-06-12T13:03:57.431Z,100616.11
2023-06-12T13:05:02.226Z,100615.14
2023-06-12T13:06:06.524Z,100617.94
2023-06-12T13:07:09.224Z,100626.63
2023-06-12T13:08:14.440Z,100622.06
2023-06-12T13:09:16.646Z,100620.03
2023-06-12T13:10:19.258Z,100621.03
2023-06-12T13:11:24.056Z,100612.53
2023-06-12T13:12:28.901Z,100619.86
2023-06-12T13:13:34.192Z,100617.74
2023-06-12T13:14:36.841Z,100619.95
2023-06-12T13:15:39.363Z,100615.54
2023-06-12T13:16:41.910Z,100624.70
2023-06-12T13:17:46.724Z,100620.36
2023-06-12T13:18:51.522Z,100630.48
2023-06-12T13:19:54.838Z,100628.94
2023-06-12T13:20:57.395Z,100629.90
2023-06-12T13:21:59.667Z,100628.36
2023-06-12T13:23:02.244Z,100621.41
2023-06-12T13:24:05.155Z,100621.41
2023-06-12T13:25:08.009Z,100619.67
2023-06-12T13:26:11.353Z,100632.59
2023-06-12T13:27:13.680Z,100619.30
2023-06-12T13:28:17.281Z,100630.48
2023-06-12T13:29:22.215Z,100629.53
2023-06-12T13:30:29.344Z,100624.97
2023-06-12T13:31:31.428Z,100626.04
2023-06-12T13:32:36.644Z,100627.59
2023-06-12T13:33:41.723Z,100626.04
2023-06-12T13:34:46.626Z,100624.49
2023-06-12T13:35:49.274Z,100620.63
2023-06-12T13:36:51.820Z,100616.80
2023-06-12T13:37:57.037Z,100629.42
2023-06-12T13:39:00.168Z,100629.31
2023-06-12T13:40:06.353Z,100624.97
2023-06-12T13:41:12.254Z,100619.09
2023-06-12T13:42:17.067Z,100622.06
2023-06-12T13:43:19.610Z,100622.75
2023-06-12T13:44:25.096Z,100616.39
2023-06-12T13:45:30.042Z,100614.08
2023-06-12T13:46:34.987Z,100616.09
2023-06-12T13:47:39.654Z,100612.72
2023-06-12T13:48:44.522Z,100611.64
2023-06-12T13:49:49.229Z,100614.73
2023-06-12T13:50:51.879Z,100615.33
2023-06-12T13:51:55.816Z,100622.28
2023-06-12T13:53:01.282Z,100618.53
2023-06-12T13:54:07.159Z,100615.44
2023-06-12T13:55:12.740Z,100616.87
2023-06-12T13:56:17.781Z,100617.05
2023-06-12T13:57:22.823Z,100611.17
2023-06-12T13:58:28.059Z,100608.38
2023-06-12T13:59:30.544Z,100606.17
2023-06-12T14:00:35.714Z,100607.72
2023-06-12T14:02:50.603Z,100599.22
2023-06-12T14:03:55.796Z,100603.19
2023-06-12T14:05:01.365Z,100603.27
2023-06-12T14:06:06.579Z,100603.86
2023-06-12T14:07:11.384Z,100600.88
2023-06-12T14:08:16.647Z,100607.53
2023-06-12T14:09:19.945Z,100603.67
2023-06-12T14:10:24.910Z,100606.95
2023-06-12T14:11:27.419Z,100602.50
2023-06-12T14:12:32.504Z,100595.39
2023-06-12T14:13:37.254Z,100594.62
2023-06-12T14:14:42.050Z,100603.78
2023-06-12T14:15:46.847Z,100606.06
2023-06-12T14:16:51.620Z,100606.06
2023-06-12T14:17:56.365Z,100609.63
2023-06-12T14:19:01.233Z,100611.66
2023-06-12T14:20:07.220Z,100611.66
2023-06-12T14:21:12.071Z,100606.76
2023-06-12T14:23:24.609Z,100594.41
2023-06-12T14:24:37.567Z,100608.19
2023-06-12T14:25:36.793Z,100611.47
2023-06-12T14:26:41.531Z,100612.53
2023-06-12T14:27:46.755Z,100606.76
2023-06-12T14:28:51.655Z,100607.34
2023-06-12T14:29:54.140Z,100607.91
2023-06-12T14:30:59.235Z,100607.13
2023-06-12T14:32:04.126Z,100608.02
2023-06-12T14:33:09.235Z,100610.63
2023-06-12T14:34:14.064Z,100604.55
2023-06-12T14:35:19.883Z,100602.53
2023-06-12T14:36:24.627Z,100600.02
2023-06-12T14:37:29.778Z,100609.95
2023-06-12T14:38:34.540Z,100604.36
2023-06-12T14:39:42.317Z,100609.95
2023-06-12T14:40:47.217Z,100600.50
2023-06-12T14:41:49.762Z,100599.44
2023-06-12T14:42:54.671Z,100600.50
2023-06-12T14:44:01.015Z,100602.82
2023-06-12T14:45:07.288Z,100597.23
2023-06-12T14:46:12.497Z,100598.48
2023-06-12T14:47:17.372Z,100603.00
2023-06-12T14:48:22.578Z,100602.05
2023-06-12T14:49:27.316Z,100597.52
2023-06-12T14:50:30.493Z,100598.08
2023-06-12T14:51:36.355Z,100597.41
2023-06-12T14:52:40.955Z,100605.89
2023-06-12T14:53:45.632Z,100601.15
2023-06-12T14:54:50.990Z,100606.55
2023-06-12T14:55:55.976Z,100603.56
2023-06-12T14:57:00.782Z,100605.39
2023-06-12T14:58:05.947Z,100608.48
2023-06-12T14:59:10.883Z,100603.17
2023-06-12T15:00:17.179Z,100600.09
2023-06-12T15:01:22.198Z,100605.88
2023-06-12T15:02:27.366Z,100609.92
2023-06-12T15:03:32.273Z,100609.16
2023-06-12T15:04:37.816Z,100609.92
2023-06-12T15:05:42.801Z,100605.78
2023-06-12T15:06:47.539Z,100605.78
2023-06-12T15:07:52.425Z,100609.53
2023-06-12T15:08:57.225Z,100611.78
2023-06-12T15:10:02.055Z,100605.41
2023-06-12T15:11:08.262Z,100617.09
2023-06-12T15:12:12.161Z,100611.97
2023-06-12T15:13:17.123Z,100611.87
2023-06-12T15:14:22.363Z,100613.89
2023-06-12T15:15:29.246Z,100615.44
2023-06-12T15:16:34.439Z,100608.30
2023-06-12T15:17:39.717Z,100615.14
2023-06-12T15:18:45.416Z,100618.91
2023-06-12T15:19:50.616Z,100614.30
2023-06-12T15:20:55.476Z,100620.08
2023-06-12T15:22:00.619Z,100613.42
2023-06-12T15:23:05.943Z,100623.54
2023-06-12T15:24:11.733Z,100626.81
2023-06-12T15:25:17.339Z,100618.91
2023-06-12T15:26:23.272Z,100620.45
2023-06-12T15:27:28.041Z,100617.36
2023-06-12T15:28:32.904Z,100624.20
